Impacts METAR Board INFO
IDs:

KMIA - Miami Intl, FL, US

Updated at: 1802 UTC 17 Jan 2018
Potential Impact None Slight Moderate High
Time17/06Z 17/07Z 17/08Z 17/09Z 17/10Z 17/11Z 17/12Z 17/13Z 17/14Z 17/15Z 17/16Z 17/17Z 17/18Z
VIS10 10 10 10 10 10 10 10 10 10 10 10 10
CIG95 250 250 250 32 75 250 250 250 250 250 250 250
CoverBKNBKNBKNBKNBKNBKNBKNBKNOVCOVCBKNOVCOVC
FltCatVFRVFRVFRVFRVFRVFRVFRVFRVFRVFRVFRVFRVFR
WX--------------------------
WDir03503603303403603303303303303303200
WSpd5 4 4 4 6 5 6 6 6 6 8 7 6
WGst-- -- -- -- -- -- -- -- -- -- -- -- --
Raw hourly METARs
KMIA 170553Z VRB05KT 10SM FEW032 SCT075 BKN095 BKN250 19/13 A3020 RMK AO2 SLP228 T01890128 10211 20189 58014 $
KMIA 170653Z 35004KT 10SM SCT032 SCT100 SCT120 BKN250 18/13 A3019 RMK AO2 SLP223 T01830128 $
KMIA 170753Z 36004KT 10SM FEW075 SCT120 BKN250 18/13 A3017 RMK AO2 SLP216 T01780128 $
KMIA 170853Z 33004KT 10SM FEW025 SCT045 SCT100 BKN250 17/13 A3018 RMK AO2 SLP220 T01720128 55008 $
KMIA 170953Z 34006KT 10SM SCT024 BKN032 BKN075 BKN250 17/12 A3018 RMK AO2 SLP221 T01720122 $
KMIA 171053Z 36005KT 10SM FEW024 BKN075 BKN120 BKN250 17/12 A3019 RMK AO2 SLP221 T01720122 $
KMIA 171153Z 33006KT 10SM FEW024 SCT075 SCT090 BKN250 17/12 A3020 RMK AO2 SLP225 T01720117 10194 20172 53005 $
KMIA 171253Z 33006KT 10SM FEW025 FEW075 FEW095 BKN250 17/12 A3022 RMK AO2 SLP232 T01720117 $
KMIA 171353Z 33006KT 10SM FEW025 FEW090 OVC250 18/12 A3024 RMK AO2 SLP239 T01780122
KMIA 171453Z 33006KT 10SM FEW028 FEW090 OVC250 20/12 A3025 RMK AO2 SLP243 T02000122 51018
KMIA 171553Z 33008KT 10SM FEW028 FEW090 BKN250 22/12 A3024 RMK AO2 SLP241 T02170122
KMIA 171653Z 32007KT 10SM FEW030 FEW100 OVC250 23/13 A3022 RMK AO2 SLP234 T02280128
KMIA 171753Z VRB06KT 10SM FEW100 OVC250 23/13 A3019 RMK AO2 SLP222 T02280128 10233 20167 58021